createdAt,value
2023-04-18T00:02:11.939Z,77.67
2023-04-18T00:04:42.869Z,77.72
2023-04-18T00:07:14.334Z,77.68
2023-04-18T00:09:45.725Z,77.66
2023-04-18T00:12:16.520Z,77.73
2023-04-18T00:14:47.152Z,77.54
2023-04-18T00:17:17.955Z,77.46
2023-04-18T00:19:48.684Z,77.53
2023-04-18T00:22:19.375Z,77.49
2023-04-18T00:24:50.456Z,77.56
2023-04-18T00:27:19.776Z,77.58
2023-04-18T00:29:50.461Z,77.59
2023-04-18T00:32:21.192Z,77.53
2023-04-18T00:34:52.049Z,77.42
2023-04-18T00:37:22.684Z,77.73
2023-04-18T00:39:53.429Z,77.72
2023-04-18T00:42:24.144Z,77.48
2023-04-18T00:44:55.401Z,77.67
2023-04-18T00:47:26.120Z,77.68
2023-04-18T00:49:57.000Z,77.67
2023-04-18T00:52:28.548Z,77.92
2023-04-18T00:54:59.610Z,77.96
2023-04-18T00:57:28.690Z,77.88
2023-04-18T01:00:01.233Z,77.87
2023-04-18T01:02:33.395Z,77.91
2023-04-18T01:05:05.085Z,77.92
2023-04-18T01:07:37.945Z,77.91
2023-04-18T01:10:10.737Z,77.86
2023-04-18T01:12:41.994Z,77.87
2023-04-18T01:15:12.869Z,77.89
2023-04-18T01:17:43.474Z,77.93
2023-04-18T01:20:16.477Z,78.15
2023-04-18T01:22:47.103Z,78.19
2023-04-18T01:25:17.780Z,78.25
2023-04-18T01:27:48.397Z,78.32
2023-04-18T01:30:19.222Z,78.44
2023-04-18T01:32:49.878Z,78.30
2023-04-18T01:35:20.824Z,78.41
2023-04-18T01:37:51.749Z,78.30
2023-04-18T01:40:22.833Z,78.35
2023-04-18T01:42:53.589Z,78.51
2023-04-18T01:45:24.525Z,78.57
2023-04-18T01:47:53.688Z,78.59
2023-04-18T01:50:24.798Z,78.79
2023-04-18T01:52:53.815Z,78.76
2023-04-18T01:55:31.024Z,78.89
2023-04-18T01:58:01.667Z,78.78
2023-04-18T02:00:34.019Z,78.86
2023-04-18T02:03:04.862Z,78.83
2023-04-18T02:05:35.785Z,78.87
2023-04-18T02:08:06.544Z,79.00
2023-04-18T02:10:37.251Z,79.18
2023-04-18T02:13:07.999Z,79.30
2023-04-18T02:15:38.893Z,79.34
2023-04-18T02:18:09.666Z,79.46
2023-04-18T02:20:40.390Z,79.60
2023-04-18T02:23:11.335Z,79.71
2023-04-18T02:25:41.964Z,79.75
2023-04-18T02:28:12.751Z,79.69
2023-04-18T02:30:43.420Z,79.82
2023-04-18T02:33:14.177Z,79.90
2023-04-18T02:35:44.776Z,79.84
2023-04-18T02:38:15.456Z,80.05
2023-04-18T02:40:46.104Z,80.10
2023-04-18T02:43:16.777Z,80.12
2023-04-18T02:45:47.384Z,80.25
2023-04-18T02:48:18.198Z,80.16
2023-04-18T02:50:48.868Z,80.01
2023-04-18T02:53:19.550Z,80.16
2023-04-18T02:55:50.179Z,80.31
2023-04-18T02:58:20.852Z,80.19
2023-04-18T03:00:55.105Z,80.36
2023-04-18T03:03:25.831Z,80.28
2023-04-18T03:05:56.529Z,80.38
2023-04-18T03:08:27.407Z,80.40
2023-04-18T03:10:58.068Z,80.44
2023-04-18T03:13:28.706Z,80.48
2023-04-18T03:15:59.352Z,80.61
2023-04-18T03:18:30.137Z,80.57
2023-04-18T03:21:00.826Z,80.90
2023-04-18T03:23:31.521Z,80.84
2023-04-18T03:26:02.362Z,80.77
2023-04-18T03:28:33.273Z,80.89
2023-04-18T03:31:03.937Z,81.04
2023-04-18T03:33:34.589Z,80.85
2023-04-18T03:36:05.807Z,80.89
2023-04-18T03:38:36.619Z,80.82
2023-04-18T03:41:07.350Z,80.93
2023-04-18T03:43:38.092Z,80.94
2023-04-18T03:46:08.782Z,80.89
2023-04-18T03:48:39.499Z,81.03
2023-04-18T03:51:10.155Z,80.98
2023-04-18T03:53:40.797Z,80.92
2023-04-18T03:56:11.736Z,80.94
2023-04-18T03:58:42.376Z,80.73
2023-04-18T04:01:13.035Z,80.66
2023-04-18T04:03:43.811Z,80.64
2023-04-18T04:06:13.163Z,80.64
2023-04-18T04:08:43.818Z,80.72
2023-04-18T04:11:14.551Z,80.92
2023-04-18T04:13:45.249Z,80.64
2023-04-18T04:16:15.874Z,80.78
2023-04-18T04:18:46.599Z,80.88
2023-04-18T04:21:18.001Z,80.80
2023-04-18T04:23:50.107Z,80.74
2023-04-18T04:26:20.824Z,80.75
2023-04-18T04:28:51.581Z,80.73
2023-04-18T04:31:22.333Z,80.74
2023-04-18T04:33:53.032Z,80.55
2023-04-18T04:36:24.839Z,80.50
2023-04-18T04:38:55.498Z,80.55
2023-04-18T04:41:26.157Z,80.32
2023-04-18T04:43:56.809Z,80.39
2023-04-18T04:46:28.291Z,80.40
2023-04-18T04:48:58.996Z,80.53
2023-04-18T04:51:29.755Z,80.42
2023-04-18T04:54:00.392Z,80.50
2023-04-18T04:56:31.396Z,80.36
2023-04-18T04:59:00.594Z,80.25
2023-04-18T05:01:31.323Z,80.38
2023-04-18T05:04:02.266Z,80.33
2023-04-18T05:06:31.527Z,80.12
2023-04-18T05:09:02.193Z,80.03
2023-04-18T05:11:32.887Z,79.88
2023-04-18T05:14:03.634Z,80.03
2023-04-18T05:16:34.405Z,79.93
2023-04-18T05:19:05.178Z,79.82
2023-04-18T05:21:36.169Z,79.81
2023-04-18T05:24:05.325Z,79.84
2023-04-18T05:26:36.302Z,79.57
2023-04-18T05:29:07.142Z,79.53
2023-04-18T05:31:37.826Z,79.40
2023-04-18T05:34:08.517Z,79.45
2023-04-18T05:36:39.182Z,79.27
2023-04-18T05:39:09.834Z,79.20
2023-04-18T05:41:40.607Z,79.04
2023-04-18T05:44:11.360Z,78.94
2023-04-18T05:46:42.181Z,78.97
2023-04-18T05:49:11.429Z,78.71
2023-04-18T05:51:42.019Z,78.67
2023-04-18T05:54:12.964Z,78.64
2023-04-18T05:56:43.997Z,78.90
2023-04-18T05:59:15.114Z,78.80
2023-04-18T06:01:44.181Z,78.73
2023-04-18T06:04:47.574Z,78.73
2023-04-18T06:07:08.647Z,78.47
2023-04-18T06:09:39.382Z,78.45
2023-04-18T06:12:11.523Z,78.23
2023-04-18T06:14:42.751Z,78.09
2023-04-18T06:17:14.152Z,77.86
2023-04-18T06:19:43.297Z,77.49
2023-04-18T06:22:14.149Z,77.68
2023-04-18T06:24:45.552Z,77.83
2023-04-18T06:27:30.171Z,77.41
2023-04-18T06:30:06.906Z,77.44
2023-04-18T06:32:37.582Z,77.78
2023-04-18T06:35:10.923Z,77.20
2023-04-18T06:37:41.685Z,76.92
2023-04-18T06:40:14.977Z,76.86
2023-04-18T06:42:46.058Z,76.68
2023-04-18T06:45:16.755Z,76.79
2023-04-18T06:47:48.984Z,77.17
2023-04-18T06:50:21.093Z,76.79
2023-04-18T06:52:51.848Z,77.19
2023-04-18T06:55:22.880Z,77.25
2023-04-18T06:57:53.554Z,77.37
2023-04-18T07:00:24.456Z,77.47
2023-04-18T07:02:55.259Z,77.29
2023-04-18T07:05:26.065Z,76.95
2023-04-18T07:07:56.778Z,77.08
2023-04-18T07:10:27.649Z,76.73
2023-04-18T07:12:58.452Z,76.73
2023-04-18T07:15:29.193Z,76.58
2023-04-18T07:17:59.903Z,76.60
2023-04-18T07:20:30.562Z,76.30
2023-04-18T07:23:01.238Z,76.27
2023-04-18T07:25:32.098Z,76.07
2023-04-18T07:28:03.294Z,75.95
2023-04-18T07:30:34.146Z,75.55
2023-04-18T07:33:04.965Z,74.95
2023-04-18T07:35:34.389Z,74.70
2023-04-18T07:38:05.082Z,74.27
2023-04-18T07:40:36.289Z,74.57
2023-04-18T07:43:06.971Z,73.95
2023-04-18T07:45:37.678Z,73.87
2023-04-18T07:48:10.653Z,74.41
2023-04-18T07:50:41.368Z,74.12
2023-04-18T07:53:11.983Z,73.51
2023-04-18T07:55:42.739Z,72.60
2023-04-18T07:58:13.649Z,72.35
2023-04-18T08:00:44.406Z,71.95
2023-04-18T08:03:15.212Z,71.72
2023-04-18T08:05:46.155Z,71.87
2023-04-18T08:08:17.002Z,71.86
2023-04-18T08:10:47.650Z,71.51
2023-04-18T08:13:18.364Z,71.13
2023-04-18T08:15:49.683Z,71.01
2023-04-18T08:18:20.452Z,71.92
2023-04-18T08:20:51.294Z,71.31
2023-04-18T08:23:21.958Z,71.44
2023-04-18T08:25:52.701Z,70.12
2023-04-18T08:28:23.643Z,69.98
2023-04-18T08:30:52.746Z,70.41
2023-04-18T08:33:23.744Z,70.40
2023-04-18T08:35:52.865Z,70.28
2023-04-18T08:38:23.573Z,68.54
2023-04-18T08:40:54.477Z,68.93
2023-04-18T08:43:23.571Z,67.81
2023-04-18T08:46:00.107Z,67.42
2023-04-18T08:48:30.935Z,68.62
2023-04-18T08:51:02.281Z,68.51
2023-04-18T08:53:34.965Z,68.66
2023-04-18T08:56:05.894Z,67.55
2023-04-18T08:58:34.999Z,65.12
2023-04-18T09:01:05.841Z,65.01
2023-04-18T09:03:39.452Z,65.55
2023-04-18T09:06:14.537Z,65.18
2023-04-18T09:08:55.067Z,66.66
2023-04-18T09:11:27.762Z,66.57
2023-04-18T09:13:58.509Z,64.61
2023-04-18T09:16:44.324Z,65.75
2023-04-18T09:19:16.468Z,65.37
2023-04-18T09:21:56.851Z,63.04
2023-04-18T09:24:28.448Z,64.27
2023-04-18T09:26:59.386Z,64.15
2023-04-18T09:29:44.681Z,64.04
2023-04-18T09:32:23.542Z,64.41
2023-04-18T09:34:56.627Z,64.82
2023-04-18T09:37:51.077Z,64.32
2023-04-18T09:40:35.802Z,64.43
2023-04-18T09:43:20.202Z,64.40
2023-04-18T09:45:51.907Z,64.79
2023-04-18T09:48:23.416Z,64.66
2023-04-18T09:50:59.391Z,65.08
2023-04-18T09:53:30.800Z,63.25
2023-04-18T09:56:02.867Z,63.38
2023-04-18T09:58:34.452Z,63.21
2023-04-18T10:01:06.271Z,63.50
2023-04-18T10:03:47.277Z,63.65
2023-04-18T10:06:16.888Z,63.91
2023-04-18T10:08:51.798Z,63.47
2023-04-18T10:11:23.054Z,63.00
2023-04-18T10:13:56.766Z,63.20
2023-04-18T10:16:28.106Z,62.15
2023-04-18T10:19:18.877Z,62.10
2023-04-18T10:21:54.904Z,63.11
2023-04-18T10:24:52.358Z,62.73
2023-04-18T10:27:58.789Z,62.39
2023-04-18T10:30:51.130Z,63.65
2023-04-18T10:33:40.957Z,61.78
2023-04-18T10:36:18.889Z,62.02
2023-04-18T10:38:52.561Z,62.43
2023-04-18T10:41:25.297Z,63.36
2023-04-18T10:44:19.409Z,61.48
2023-04-18T10:47:30.257Z,62.16
2023-04-18T10:50:06.033Z,60.67
2023-04-18T10:52:37.471Z,60.86
2023-04-18T10:55:20.986Z,60.91
2023-04-18T10:57:51.696Z,60.54
2023-04-18T11:00:24.500Z,60.09
2023-04-18T11:02:56.539Z,60.36
2023-04-18T11:05:28.921Z,59.86
2023-04-18T11:07:59.683Z,59.94
2023-04-18T11:10:30.429Z,59.45
2023-04-18T11:13:05.371Z,57.91
2023-04-18T11:15:38.006Z,58.19
2023-04-18T11:18:10.862Z,58.46
2023-04-18T11:21:19.358Z,57.44
2023-04-18T11:23:50.939Z,58.23
2023-04-18T11:26:26.188Z,58.04
2023-04-18T11:29:06.091Z,59.29
2023-04-18T11:31:37.051Z,58.02
2023-04-18T11:34:22.711Z,58.01
2023-04-18T11:36:54.135Z,58.84
2023-04-18T11:39:23.718Z,58.64
2023-04-18T11:41:54.628Z,58.86
2023-04-18T11:44:26.807Z,59.11
2023-04-18T11:46:57.438Z,59.08
2023-04-18T11:49:29.884Z,58.77
2023-04-18T11:52:00.626Z,58.51
2023-04-18T11:54:42.712Z,58.87
2023-04-18T11:57:25.163Z,58.86
2023-04-18T11:59:57.927Z,58.90
2023-04-18T12:02:40.191Z,59.09
2023-04-18T12:05:12.135Z,57.66
2023-04-18T12:07:45.426Z,58.23
2023-04-18T12:10:28.295Z,57.88
2023-04-18T12:12:59.845Z,58.02
2023-04-18T12:15:31.441Z,58.00
2023-04-18T12:18:04.948Z,57.65
2023-04-18T12:20:37.477Z,57.45
2023-04-18T12:23:08.157Z,57.35
2023-04-18T12:25:39.323Z,57.35
2023-04-18T12:28:16.780Z,56.78
2023-04-18T12:30:47.579Z,54.81
2023-04-18T12:33:18.263Z,54.93
2023-04-18T12:35:49.715Z,55.70
2023-04-18T12:38:21.600Z,56.04
2023-04-18T12:40:52.997Z,55.13
2023-04-18T12:43:23.593Z,54.67
2023-04-18T12:45:54.902Z,55.39
2023-04-18T12:48:25.644Z,55.44
2023-04-18T12:50:56.690Z,55.03
2023-04-18T12:53:27.395Z,55.23
2023-04-18T12:55:58.060Z,54.40
2023-04-18T12:58:27.194Z,55.76
2023-04-18T13:00:57.963Z,55.11
2023-04-18T13:03:28.783Z,54.96
2023-04-18T13:05:59.690Z,55.29
2023-04-18T13:08:29.077Z,54.91
2023-04-18T13:10:59.718Z,54.78
2023-04-18T13:13:32.200Z,54.74
2023-04-18T13:16:04.699Z,54.78
2023-04-18T13:18:35.360Z,54.45
2023-04-18T13:21:06.340Z,55.45
2023-04-18T13:23:37.222Z,56.43
2023-04-18T13:26:08.368Z,54.74
2023-04-18T13:28:39.268Z,54.56
2023-04-18T13:31:09.942Z,54.65
2023-04-18T13:33:41.045Z,54.78
2023-04-18T13:36:11.928Z,54.86
2023-04-18T13:38:43.077Z,54.39
2023-04-18T13:41:13.908Z,54.60
2023-04-18T13:43:44.646Z,54.43
2023-04-18T13:46:15.290Z,54.55
2023-04-18T13:48:45.996Z,54.86
2023-04-18T13:51:15.208Z,54.89
2023-04-18T13:53:45.798Z,55.06
2023-04-18T13:56:16.445Z,55.21
2023-04-18T13:58:47.059Z,54.84
2023-04-18T14:01:17.811Z,53.52
2023-04-18T14:03:47.144Z,54.15
2023-04-18T14:06:18.485Z,53.90
2023-04-18T14:08:50.550Z,54.30
2023-04-18T14:11:21.531Z,53.90
2023-04-18T14:13:52.112Z,53.48
2023-04-18T14:16:23.495Z,52.41
2023-04-18T14:18:54.421Z,52.81
2023-04-18T14:21:25.429Z,52.65
2023-04-18T14:23:56.412Z,52.60
2023-04-18T14:26:27.134Z,53.02
2023-04-18T14:28:57.882Z,52.73
2023-04-18T14:31:28.585Z,52.63
2023-04-18T14:33:59.226Z,52.86
2023-04-18T14:36:30.026Z,52.05
2023-04-18T14:38:59.144Z,52.02
2023-04-18T14:41:29.833Z,53.12
2023-04-18T14:44:00.488Z,53.83
2023-04-18T14:46:31.275Z,54.15
2023-04-18T14:49:00.325Z,54.35
2023-04-18T14:51:30.917Z,54.30
2023-04-18T14:54:01.557Z,54.73
2023-04-18T14:56:32.238Z,53.15
2023-04-18T14:59:02.954Z,53.18
2023-04-18T15:01:33.646Z,53.74
2023-04-18T15:04:04.713Z,54.17
2023-04-18T15:06:35.499Z,54.12
2023-04-18T15:09:06.249Z,54.46
2023-04-18T15:11:35.395Z,54.45
2023-04-18T15:14:06.170Z,53.49
2023-04-18T15:16:36.818Z,54.53
2023-04-18T15:19:07.680Z,54.33
2023-04-18T15:21:36.733Z,54.03
2023-04-18T15:24:08.288Z,54.65
2023-04-18T15:26:39.263Z,54.45
2023-04-18T15:29:10.045Z,54.24
2023-04-18T15:31:39.392Z,54.06
2023-04-18T15:34:10.138Z,53.59
2023-04-18T15:36:40.773Z,53.96
2023-04-18T15:39:11.439Z,53.60
2023-04-18T15:41:42.085Z,54.28
2023-04-18T15:44:13.189Z,54.30
2023-04-18T15:46:43.957Z,54.60
2023-04-18T15:49:14.762Z,54.91
2023-04-18T15:51:43.861Z,55.24
2023-04-18T15:54:14.980Z,54.92
2023-04-18T15:56:45.950Z,54.70
2023-04-18T15:59:16.603Z,54.56
2023-04-18T16:01:47.313Z,54.47
2023-04-18T16:04:18.378Z,54.54
2023-04-18T16:06:49.169Z,54.52
2023-04-18T16:09:19.872Z,54.53
2023-04-18T16:11:50.471Z,54.36
2023-04-18T16:14:21.135Z,54.55
2023-04-18T16:16:51.901Z,54.96
2023-04-18T16:19:22.548Z,54.13
2023-04-18T16:21:53.172Z,54.53
2023-04-18T16:24:23.880Z,54.88
2023-04-18T16:26:53.036Z,55.36
2023-04-18T16:29:23.858Z,55.56
2023-04-18T16:31:54.624Z,55.86
2023-04-18T16:34:25.343Z,55.94
2023-04-18T16:36:55.597Z,55.85
2023-04-18T16:39:26.488Z,56.06
2023-04-18T16:41:57.085Z,55.77
2023-04-18T16:44:28.247Z,55.96
2023-04-18T16:46:59.034Z,56.23
2023-04-18T16:49:28.281Z,56.47
2023-04-18T16:51:58.962Z,56.91
2023-04-18T16:54:29.851Z,56.95
2023-04-18T16:56:59.012Z,57.24
2023-04-18T16:59:29.694Z,57.17
2023-04-18T17:02:00.497Z,57.11
2023-04-18T17:04:29.809Z,57.15
2023-04-18T17:07:00.688Z,57.09
2023-04-18T17:09:31.680Z,57.14
2023-04-18T17:12:02.320Z,57.37
2023-04-18T17:14:33.010Z,57.55
2023-04-18T17:17:03.945Z,57.75
2023-04-18T17:19:33.218Z,57.88
2023-04-18T17:22:03.961Z,58.15
2023-04-18T17:24:34.666Z,58.38
2023-04-18T17:27:05.700Z,58.66
2023-04-18T17:29:36.548Z,58.74
2023-04-18T17:32:09.027Z,59.08
2023-04-18T17:34:39.773Z,59.15
2023-04-18T17:37:10.526Z,59.49
2023-04-18T17:39:41.404Z,59.51
2023-04-18T17:42:12.081Z,59.85
2023-04-18T17:44:42.750Z,60.34
2023-04-18T17:47:13.402Z,60.13
2023-04-18T17:49:44.084Z,60.66
2023-04-18T17:52:14.728Z,60.89
2023-04-18T17:54:45.677Z,60.75
2023-04-18T17:57:16.717Z,61.03
2023-04-18T17:59:47.447Z,61.35
2023-04-18T18:02:18.271Z,61.43
2023-04-18T18:04:47.428Z,61.47
2023-04-18T18:07:18.484Z,61.63
2023-04-18T18:09:49.272Z,62.20
2023-04-18T18:12:19.927Z,62.38
2023-04-18T18:14:50.579Z,62.46
2023-04-18T18:17:21.380Z,62.70
2023-04-18T18:19:50.746Z,62.72
2023-04-18T18:22:21.512Z,62.53
2023-04-18T18:24:52.151Z,62.76
2023-04-18T18:27:22.996Z,62.44
2023-04-18T18:29:53.926Z,62.55
2023-04-18T18:32:25.025Z,62.23
2023-04-18T18:34:55.700Z,62.15
2023-04-18T18:37:26.374Z,62.18
2023-04-18T18:39:55.875Z,61.96
2023-04-18T18:42:26.503Z,62.07
2023-04-18T18:44:57.183Z,61.93
2023-04-18T18:47:27.923Z,61.92
2023-04-18T18:49:57.256Z,61.91
2023-04-18T18:52:27.951Z,61.97
2023-04-18T18:54:58.878Z,61.86
2023-04-18T18:57:29.504Z,61.94
2023-04-18T19:00:00.207Z,62.12
2023-04-18T19:02:31.636Z,62.16
2023-04-18T19:05:03.161Z,62.21
2023-04-18T19:07:32.459Z,62.37
2023-04-18T19:10:03.323Z,62.45
2023-04-18T19:12:33.958Z,62.68
2023-04-18T19:15:05.267Z,62.52
2023-04-18T19:17:36.062Z,62.77
2023-04-18T19:20:09.991Z,62.95
2023-04-18T19:22:40.898Z,63.15
2023-04-18T19:25:10.491Z,63.07
2023-04-18T19:27:41.115Z,63.22
2023-04-18T19:30:12.934Z,63.33
2023-04-18T19:32:43.618Z,63.36
2023-04-18T19:35:14.440Z,63.49
2023-04-18T19:37:45.402Z,63.58
2023-04-18T19:40:16.265Z,63.80
2023-04-18T19:42:47.060Z,63.40
2023-04-18T19:45:17.965Z,63.59
2023-04-18T19:47:47.115Z,63.58
2023-04-18T19:50:19.831Z,63.48
2023-04-18T19:52:50.590Z,63.63
2023-04-18T19:55:21.699Z,63.60
2023-04-18T19:57:56.295Z,63.76
2023-04-18T20:00:27.133Z,64.02
2023-04-18T20:02:57.941Z,64.01
2023-04-18T20:05:29.209Z,64.16
2023-04-18T20:08:00.632Z,64.14
2023-04-18T20:10:31.902Z,64.41
2023-04-18T20:13:02.511Z,64.76
2023-04-18T20:15:33.310Z,64.92
2023-04-18T20:18:04.376Z,64.81
2023-04-18T20:20:35.087Z,64.78
2023-04-18T20:23:05.826Z,64.74
2023-04-18T20:25:38.086Z,65.19
2023-04-18T20:28:08.883Z,65.14
2023-04-18T20:30:39.645Z,65.24
2023-04-18T20:33:10.330Z,65.17
2023-04-18T20:35:41.053Z,65.17
2023-04-18T20:38:11.814Z,65.29
2023-04-18T20:40:42.917Z,65.42
2023-04-18T20:43:13.630Z,65.75
2023-04-18T20:45:44.351Z,65.74
2023-04-18T20:48:14.936Z,65.84
2023-04-18T20:50:45.814Z,66.31
2023-04-18T20:53:16.482Z,66.20
2023-04-18T20:55:47.250Z,66.15
2023-04-18T20:58:17.936Z,66.29
2023-04-18T21:00:48.608Z,66.14
2023-04-18T21:03:27.835Z,66.39
2023-04-18T21:05:57.097Z,66.54
2023-04-18T21:08:27.757Z,66.79
2023-04-18T21:10:58.438Z,66.77
2023-04-18T21:13:29.146Z,66.78
2023-04-18T21:15:59.860Z,66.87
2023-04-18T21:18:30.850Z,67.27
2023-04-18T21:20:59.994Z,67.47
2023-04-18T21:23:30.730Z,67.47
2023-04-18T21:26:01.553Z,67.55
2023-04-18T21:28:32.762Z,67.60
2023-04-18T21:31:03.478Z,67.62
2023-04-18T21:33:34.098Z,67.55
2023-04-18T21:36:05.356Z,67.37
2023-04-18T21:38:36.088Z,67.40
2023-04-18T21:41:06.997Z,67.22
2023-04-18T21:43:36.168Z,67.24
2023-04-18T21:46:07.171Z,67.40
2023-04-18T21:48:36.311Z,67.54
2023-04-18T21:51:07.464Z,67.55
2023-04-18T21:53:39.208Z,67.58
2023-04-18T21:56:11.900Z,67.30
2023-04-18T21:58:42.489Z,67.35
2023-04-18T22:01:13.488Z,67.60
2023-04-18T22:03:44.514Z,67.40
2023-04-18T22:06:13.808Z,67.73
2023-04-18T22:08:44.434Z,67.90
2023-04-18T22:11:15.169Z,67.82
2023-04-18T22:13:46.385Z,68.01
2023-04-18T22:16:17.305Z,68.00
2023-04-18T22:18:46.525Z,68.24
2023-04-18T22:21:17.317Z,68.25
2023-04-18T22:23:47.954Z,68.31
2023-04-18T22:26:18.589Z,68.42
2023-04-18T22:28:49.284Z,68.29
2023-04-18T22:31:20.100Z,68.16
2023-04-18T22:33:50.767Z,68.11
2023-04-18T22:36:21.450Z,67.34
2023-04-18T22:38:52.066Z,67.33
2023-04-18T22:41:22.765Z,67.19
2023-04-18T22:43:53.591Z,67.21
2023-04-18T22:46:24.404Z,67.02
2023-04-18T22:48:55.058Z,66.80
2023-04-18T22:51:25.786Z,66.77
2023-04-18T22:53:56.515Z,66.59
2023-04-18T22:56:27.197Z,66.40
2023-04-18T22:58:57.789Z,65.70
2023-04-18T23:01:28.558Z,65.52
2023-04-18T23:03:59.427Z,65.60
2023-04-18T23:06:30.479Z,65.77
2023-04-18T23:09:01.152Z,65.78
2023-04-18T23:11:31.858Z,65.65
2023-04-18T23:14:02.489Z,65.08
2023-04-18T23:16:33.082Z,64.57
2023-04-18T23:19:04.660Z,64.47
2023-04-18T23:21:35.310Z,64.31
2023-04-18T23:24:06.385Z,64.57
2023-04-18T23:26:37.026Z,64.71
2023-04-18T23:29:07.627Z,64.91
2023-04-18T23:31:38.356Z,64.87
2023-04-18T23:34:09.184Z,65.18
2023-04-18T23:36:39.945Z,65.47
2023-04-18T23:39:10.680Z,65.68
2023-04-18T23:41:41.305Z,65.64
2023-04-18T23:44:12.103Z,65.62
2023-04-18T23:46:42.852Z,65.11
2023-04-18T23:49:13.980Z,64.11
2023-04-18T23:51:44.714Z,63.32
2023-04-18T23:54:15.577Z,61.87
2023-04-18T23:56:46.268Z,60.67
2023-04-18T23:59:16.904Z,59.73
